sensor_id;sensor_type;location;lat;lon;timestamp;P1;durP1;ratioP1;P2;durP2;ratioP2
30458;SDS011;17254;50.976;7.034;2023-06-14T00:00:06;10.27;;;8.73;;
30458;SDS011;17254;50.976;7.034;2023-06-14T00:00:14;10.43;;;8.80;;
30458;SDS011;17254;50.976;7.034;2023-06-14T00:00:21;10.02;;;8.70;;
30458;SDS011;17254;50.976;7.034;2023-06-14T00:00:27;10.27;;;8.87;;
30458;SDS011;17254;50.976;7.034;2023-06-14T00:00:33;10.48;;;8.70;;
30458;SDS011;17254;50.976;7.034;2023-06-14T00:00:39;9.84;;;8.84;;
30458;SDS011;17254;50.976;7.034;2023-06-14T00:00:46;9.85;;;8.65;;
30458;SDS011;17254;50.976;7.034;2023-06-14T00:00:53;9.77;;;8.47;;
30458;SDS011;17254;50.976;7.034;2023-06-14T00:01:01;9.80;;;8.60;;
30458;SDS011;17254;50.976;7.034;2023-06-14T00:01:08;10.32;;;8.80;;
30458;SDS011;17254;50.976;7.034;2023-06-14T00:01:14;10.70;;;8.80;;
30458;SDS011;17254;50.976;7.034;2023-06-14T00:01:20;10.25;;;9.07;;
30458;SDS011;17254;50.976;7.034;2023-06-14T00:01:27;10.48;;;9.02;;
30458;SDS011;17254;50.976;7.034;2023-06-14T00:01:34;10.70;;;8.88;;
30458;SDS011;17254;50.976;7.034;2023-06-14T00:01:40;10.50;;;8.48;;
30458;SDS011;17254;50.976;7.034;2023-06-14T00:01:46;11.13;;;8.50;;
30458;SDS011;17254;50.976;7.034;2023-06-14T00:01:52;10.94;;;8.38;;
30458;SDS011;17254;50.976;7.034;2023-06-14T00:01:58;10.43;;;8.50;;
30458;SDS011;17254;50.976;7.034;2023-06-14T00:02:04;10.15;;;8.43;;
30458;SDS011;17254;50.976;7.034;2023-06-14T00:02:13;9.77;;;8.54;;
30458;SDS011;17254;50.976;7.034;2023-06-14T00:02:19;9.57;;;8.60;;
30458;SDS011;17254;50.976;7.034;2023-06-14T00:02:25;9.57;;;8.57;;
30458;SDS011;17254;50.976;7.034;2023-06-14T00:02:31;9.50;;;8.50;;
30458;SDS011;17254;50.976;7.034;2023-06-14T00:02:38;9.45;;;8.48;;
30458;SDS011;17254;50.976;7.034;2023-06-14T00:02:44;9.38;;;8.38;;
30458;SDS011;17254;50.976;7.034;2023-06-14T00:02:50;9.20;;;8.02;;
30458;SDS011;17254;50.976;7.034;2023-06-14T00:02:56;8.80;;;7.88;;
30458;SDS011;17254;50.976;7.034;2023-06-14T00:03:03;8.77;;;7.80;;
30458;SDS011;17254;50.976;7.034;2023-06-14T00:03:10;8.70;;;7.80;;
30458;SDS011;17254;50.976;7.034;2023-06-14T00:03:17;8.66;;;7.76;;
30458;SDS011;17254;50.976;7.034;2023-06-14T00:03:22;8.63;;;7.72;;
30458;SDS011;17254;50.976;7.034;2023-06-14T00:03:29;8.77;;;7.73;;
30458;SDS011;17254;50.976;7.034;2023-06-14T00:03:37;9.13;;;7.77;;
30458;SDS011;17254;50.976;7.034;2023-06-14T00:03:44;9.77;;;7.93;;
30458;SDS011;17254;50.976;7.034;2023-06-14T00:03:50;9.52;;;7.95;;
30458;SDS011;17254;50.976;7.034;2023-06-14T00:03:55;10.00;;;8.20;;
30458;SDS011;17254;50.976;7.034;2023-06-14T00:04:01;9.57;;;8.15;;
30458;SDS011;17254;50.976;7.034;2023-06-14T00:04:09;9.38;;;8.23;;
30458;SDS011;17254;50.976;7.034;2023-06-14T00:04:15;9.10;;;8.14;;
30458;SDS011;17254;50.976;7.034;2023-06-14T00:04:21;9.10;;;8.20;;
30458;SDS011;17254;50.976;7.034;2023-06-14T00:04:30;9.37;;;8.28;;
30458;SDS011;17254;50.976;7.034;2023-06-14T00:04:37;9.30;;;8.27;;
30458;SDS011;17254;50.976;7.034;2023-06-14T00:04:44;9.48;;;8.18;;
30458;SDS011;17254;50.976;7.034;2023-06-14T00:04:50;9.73;;;8.13;;
30458;SDS011;17254;50.976;7.034;2023-06-14T00:04:57;9.74;;;8.08;;
30458;SDS011;17254;50.976;7.034;2023-06-14T00:05:04;9.66;;;8.18;;
30458;SDS011;17254;50.976;7.034;2023-06-14T00:05:11;9.94;;;8.20;;
30458;SDS011;17254;50.976;7.034;2023-06-14T00:05:17;9.90;;;8.27;;
30458;SDS011;17254;50.976;7.034;2023-06-14T00:05:23;9.43;;;8.23;;
30458;SDS011;17254;50.976;7.034;2023-06-14T00:05:29;9.60;;;8.37;;
30458;SDS011;17254;50.976;7.034;2023-06-14T00:05:38;9.41;;;8.26;;
30458;SDS011;17254;50.976;7.034;2023-06-14T00:05:48;9.40;;;8.11;;
30458;SDS011;17254;50.976;7.034;2023-06-14T00:05:54;9.95;;;8.13;;
30458;SDS011;17254;50.976;7.034;2023-06-14T00:06:00;10.60;;;7.97;;
30458;SDS011;17254;50.976;7.034;2023-06-14T00:06:05;11.40;;;7.80;;
30458;SDS011;17254;50.976;7.034;2023-06-14T00:06:12;10.80;;;7.66;;
30458;SDS011;17254;50.976;7.034;2023-06-14T00:06:18;11.10;;;7.77;;
30458;SDS011;17254;50.976;7.034;2023-06-14T00:06:24;10.93;;;7.85;;
30458;SDS011;17254;50.976;7.034;2023-06-14T00:06:30;10.02;;;7.85;;
30458;SDS011;17254;50.976;7.034;2023-06-14T00:06:36;9.48;;;7.93;;
30458;SDS011;17254;50.976;7.034;2023-06-14T00:06:44;10.02;;;8.16;;
30458;SDS011;17254;50.976;7.034;2023-06-14T00:06:50;9.68;;;8.20;;
30458;SDS011;17254;50.976;7.034;2023-06-14T00:06:56;9.40;;;8.10;;
30458;SDS011;17254;50.976;7.034;2023-06-14T00:07:02;9.55;;;8.18;;
30458;SDS011;17254;50.976;7.034;2023-06-14T00:07:08;8.95;;;8.02;;
30458;SDS011;17254;50.976;7.034;2023-06-14T00:07:14;8.93;;;8.00;;
30458;SDS011;17254;50.976;7.034;2023-06-14T00:07:22;9.60;;;8.00;;
30458;SDS011;17254;50.976;7.034;2023-06-14T00:07:39;9.80;;;8.21;;
30458;SDS011;17254;50.976;7.034;2023-06-14T00:07:48;9.64;;;8.24;;
30458;SDS011;17254;50.976;7.034;2023-06-14T00:07:54;9.13;;;8.07;;
30458;SDS011;17254;50.976;7.034;2023-06-14T00:08:00;8.93;;;7.97;;
30458;SDS011;17254;50.976;7.034;2023-06-14T00:08:06;8.95;;;7.90;;
30458;SDS011;17254;50.976;7.034;2023-06-14T00:08:13;9.02;;;7.92;;
30458;SDS011;17254;50.976;7.034;2023-06-14T00:08:20;9.00;;;8.04;;
30458;SDS011;17254;50.976;7.034;2023-06-14T00:08:27;10.10;;;8.30;;
30458;SDS011;17254;50.976;7.034;2023-06-14T00:08:33;10.20;;;8.43;;
30458;SDS011;17254;50.976;7.034;2023-06-14T00:08:40;10.00;;;8.20;;
30458;SDS011;17254;50.976;7.034;2023-06-14T00:08:46;10.30;;;8.10;;
30458;SDS011;17254;50.976;7.034;2023-06-14T00:08:51;10.33;;;8.10;;
30458;SDS011;17254;50.976;7.034;2023-06-14T00:08:59;9.27;;;7.87;;
30458;SDS011;17254;50.976;7.034;2023-06-14T00:09:05;9.50;;;7.63;;
30458;SDS011;17254;50.976;7.034;2023-06-14T00:09:13;9.63;;;7.80;;
30458;SDS011;17254;50.976;7.034;2023-06-14T00:09:22;9.07;;;7.67;;
30458;SDS011;17254;50.976;7.034;2023-06-14T00:09:28;9.18;;;7.85;;
30458;SDS011;17254;50.976;7.034;2023-06-14T00:09:34;9.18;;;7.90;;
30458;SDS011;17254;50.976;7.034;2023-06-14T00:09:40;8.70;;;7.70;;
30458;SDS011;17254;50.976;7.034;2023-06-14T00:09:46;9.73;;;7.90;;
30458;SDS011;17254;50.976;7.034;2023-06-14T00:09:52;10.17;;;7.93;;
30458;SDS011;17254;50.976;7.034;2023-06-14T00:09:58;10.35;;;7.78;;
30458;SDS011;17254;50.976;7.034;2023-06-14T00:10:04;10.30;;;7.80;;
30458;SDS011;17254;50.976;7.034;2023-06-14T00:10:11;10.00;;;8.00;;
30458;SDS011;17254;50.976;7.034;2023-06-14T00:10:17;9.40;;;7.83;;
30458;SDS011;17254;50.976;7.034;2023-06-14T00:10:23;9.13;;;7.93;;
30458;SDS011;17254;50.976;7.034;2023-06-14T00:10:29;8.82;;;7.90;;
30458;SDS011;17254;50.976;7.034;2023-06-14T00:10:36;9.00;;;7.86;;
30458;SDS011;17254;50.976;7.034;2023-06-14T00:10:46;9.01;;;7.96;;
30458;SDS011;17254;50.976;7.034;2023-06-14T00:10:52;9.07;;;8.00;;
30458;SDS011;17254;50.976;7.034;2023-06-14T00:10:58;9.27;;;7.93;;
30458;SDS011;17254;50.976;7.034;2023-06-14T00:11:05;9.03;;;7.83;;
30458;SDS011;17254;50.976;7.034;2023-06-14T00:11:11;9.20;;;7.57;;
30458;SDS011;17254;50.976;7.034;2023-06-14T00:11:17;8.93;;;7.72;;
30458;SDS011;17254;50.976;7.034;2023-06-14T00:11:23;8.83;;;7.77;;
30458;SDS011;17254;50.976;7.034;2023-06-14T00:11:28;8.82;;;7.55;;
30458;SDS011;17254;50.976;7.034;2023-06-14T00:11:35;9.80;;;7.90;;
30458;SDS011;17254;50.976;7.034;2023-06-14T00:11:41;9.52;;;8.10;;
30458;SDS011;17254;50.976;7.034;2023-06-14T00:11:47;9.50;;;7.88;;
30458;SDS011;17254;50.976;7.034;2023-06-14T00:11:53;9.30;;;7.78;;
30458;SDS011;17254;50.976;7.034;2023-06-14T00:11:59;10.10;;;7.87;;
30458;SDS011;17254;50.976;7.034;2023-06-14T00:12:06;9.70;;;7.98;;
30458;SDS011;17254;50.976;7.034;2023-06-14T00:12:13;10.13;;;8.00;;
30458;SDS011;17254;50.976;7.034;2023-06-14T00:12:19;10.70;;;8.13;;
30458;SDS011;17254;50.976;7.034;2023-06-14T00:12:25;10.85;;;8.20;;
30458;SDS011;17254;50.976;7.034;2023-06-14T00:12:31;9.82;;;8.13;;
30458;SDS011;17254;50.976;7.034;2023-06-14T00:12:37;9.63;;;7.93;;
30458;SDS011;17254;50.976;7.034;2023-06-14T00:12:44;9.43;;;7.53;;
30458;SDS011;17254;50.976;7.034;2023-06-14T00:12:52;9.10;;;7.53;;
30458;SDS011;17254;50.976;7.034;2023-06-14T00:12:58;9.83;;;7.93;;
30458;SDS011;17254;50.976;7.034;2023-06-14T00:13:04;9.43;;;7.63;;
30458;SDS011;17254;50.976;7.034;2023-06-14T00:13:12;9.20;;;7.83;;
30458;SDS011;17254;50.976;7.034;2023-06-14T00:13:18;9.40;;;7.87;;
30458;SDS011;17254;50.976;7.034;2023-06-14T00:13:24;9.82;;;7.72;;
30458;SDS011;17254;50.976;7.034;2023-06-14T00:13:30;9.74;;;7.60;;
30458;SDS011;17254;50.976;7.034;2023-06-14T00:13:36;10.02;;;7.70;;
30458;SDS011;17254;50.976;7.034;2023-06-14T00:13:42;10.23;;;7.50;;
30458;SDS011;17254;50.976;7.034;2023-06-14T00:13:48;10.33;;;7.40;;
30458;SDS011;17254;50.976;7.034;2023-06-14T00:13:54;9.55;;;7.35;;
30458;SDS011;17254;50.976;7.034;2023-06-14T00:14:00;9.73;;;7.32;;
30458;SDS011;17254;50.976;7.034;2023-06-14T00:14:06;9.45;;;7.20;;
30458;SDS011;17254;50.976;7.034;2023-06-14T00:14:12;9.70;;;7.27;;
30458;SDS011;17254;50.976;7.034;2023-06-14T00:14:18;9.17;;;7.40;;
30458;SDS011;17254;50.976;7.034;2023-06-14T00:14:24;9.03;;;7.50;;
30458;SDS011;17254;50.976;7.034;2023-06-14T00:14:30;8.70;;;7.40;;
30458;SDS011;17254;50.976;7.034;2023-06-14T00:14:36;8.45;;;7.30;;
30458;SDS011;17254;50.976;7.034;2023-06-14T00:14:42;8.07;;;7.28;;
30458;SDS011;17254;50.976;7.034;2023-06-14T00:14:49;7.94;;;7.14;;
30458;SDS011;17254;50.976;7.034;2023-06-14T00:14:55;8.07;;;7.15;;
30458;SDS011;17254;50.976;7.034;2023-06-14T00:15:01;8.30;;;7.40;;
30458;SDS011;17254;50.976;7.034;2023-06-14T00:15:07;8.57;;;7.68;;
30458;SDS011;17254;50.976;7.034;2023-06-14T00:15:14;8.68;;;7.67;;
30458;SDS011;17254;50.976;7.034;2023-06-14T00:15:20;9.37;;;7.67;;
30458;SDS011;17254;50.976;7.034;2023-06-14T00:15:26;9.02;;;7.55;;
30458;SDS011;17254;50.976;7.034;2023-06-14T00:15:33;9.77;;;7.60;;
30458;SDS011;17254;50.976;7.034;2023-06-14T00:15:39;9.97;;;7.57;;
30458;SDS011;17254;50.976;7.034;2023-06-14T00:15:45;10.23;;;7.60;;
30458;SDS011;17254;50.976;7.034;2023-06-14T00:15:51;10.08;;;7.70;;
30458;SDS011;17254;50.976;7.034;2023-06-14T00:16:00;10.07;;;8.00;;
30458;SDS011;17254;50.976;7.034;2023-06-14T00:16:05;9.98;;;7.80;;
30458;SDS011;17254;50.976;7.034;2023-06-14T00:16:11;9.82;;;7.85;;
30458;SDS011;17254;50.976;7.034;2023-06-14T00:16:18;10.03;;;7.90;;
30458;SDS011;17254;50.976;7.034;2023-06-14T00:16:24;9.93;;;8.00;;
30458;SDS011;17254;50.976;7.034;2023-06-14T00:16:31;9.88;;;7.82;;
30458;SDS011;17254;50.976;7.034;2023-06-14T00:16:38;9.74;;;7.72;;
30458;SDS011;17254;50.976;7.034;2023-06-14T00:16:47;9.57;;;7.74;;
30458;SDS011;17254;50.976;7.034;2023-06-14T00:16:53;9.30;;;7.33;;
30458;SDS011;17254;50.976;7.034;2023-06-14T00:17:03;9.77;;;7.31;;
30458;SDS011;17254;50.976;7.034;2023-06-14T00:17:09;10.15;;;7.35;;
30458;SDS011;17254;50.976;7.034;2023-06-14T00:17:15;10.48;;;7.35;;
30458;SDS011;17254;50.976;7.034;2023-06-14T00:17:22;10.30;;;7.50;;
30458;SDS011;17254;50.976;7.034;2023-06-14T00:17:28;9.90;;;7.53;;
30458;SDS011;17254;50.976;7.034;2023-06-14T00:17:35;9.87;;;7.87;;
30458;SDS011;17254;50.976;7.034;2023-06-14T00:17:41;9.27;;;8.07;;
30458;SDS011;17254;50.976;7.034;2023-06-14T00:17:47;9.33;;;8.07;;
30458;SDS011;17254;50.976;7.034;2023-06-14T00:17:53;9.60;;;8.05;;
30458;SDS011;17254;50.976;7.034;2023-06-14T00:18:01;9.61;;;7.87;;
30458;SDS011;17254;50.976;7.034;2023-06-14T00:18:08;9.17;;;7.80;;
30458;SDS011;17254;50.976;7.034;2023-06-14T00:18:16;9.69;;;7.81;;
30458;SDS011;17254;50.976;7.034;2023-06-14T00:18:22;9.13;;;7.70;;
30458;SDS011;17254;50.976;7.034;2023-06-14T00:18:29;8.73;;;7.63;;
30458;SDS011;17254;50.976;7.034;2023-06-14T00:18:36;8.72;;;7.44;;
30458;SDS011;17254;50.976;7.034;2023-06-14T00:18:41;8.27;;;7.20;;
30458;SDS011;17254;50.976;7.034;2023-06-14T00:18:47;8.17;;;7.13;;
30458;SDS011;17254;50.976;7.034;2023-06-14T00:18:54;8.40;;;7.12;;
30458;SDS011;17254;50.976;7.034;2023-06-14T00:19:00;8.33;;;7.13;;
30458;SDS011;17254;50.976;7.034;2023-06-14T00:19:09;8.39;;;7.01;;
30458;SDS011;17254;50.976;7.034;2023-06-14T00:19:15;8.18;;;7.06;;
30458;SDS011;17254;50.976;7.034;2023-06-14T00:19:21;8.02;;;7.22;;
30458;SDS011;17254;50.976;7.034;2023-06-14T00:19:28;8.24;;;7.42;;
30458;SDS011;17254;50.976;7.034;2023-06-14T00:19:35;8.46;;;7.64;;
30458;SDS011;17254;50.976;7.034;2023-06-14T00:19:41;8.77;;;7.88;;
30458;SDS011;17254;50.976;7.034;2023-06-14T00:19:47;8.77;;;7.88;;
30458;SDS011;17254;50.976;7.034;2023-06-14T00:19:53;8.93;;;7.82;;
30458;SDS011;17254;50.976;7.034;2023-06-14T00:20:00;9.00;;;7.80;;
30458;SDS011;17254;50.976;7.034;2023-06-14T00:20:08;9.00;;;7.78;;
30458;SDS011;17254;50.976;7.034;2023-06-14T00:20:15;8.77;;;7.50;;
30458;SDS011;17254;50.976;7.034;2023-06-14T00:20:21;8.30;;;7.30;;
30458;SDS011;17254;50.976;7.034;2023-06-14T00:20:27;8.67;;;7.70;;
30458;SDS011;17254;50.976;7.034;2023-06-14T00:20:33;9.43;;;7.93;;
30458;SDS011;17254;50.976;7.034;2023-06-14T00:20:39;10.30;;;8.02;;
30458;SDS011;17254;50.976;7.034;2023-06-14T00:20:46;10.40;;;8.07;;
30458;SDS011;17254;50.976;7.034;2023-06-14T00:20:52;11.13;;;8.20;;
30458;SDS011;17254;50.976;7.034;2023-06-14T00:20:58;10.45;;;7.88;;
30458;SDS011;17254;50.976;7.034;2023-06-14T00:21:04;10.00;;;7.88;;
30458;SDS011;17254;50.976;7.034;2023-06-14T00:21:10;9.32;;;7.88;;
30458;SDS011;17254;50.976;7.034;2023-06-14T00:21:17;9.32;;;8.04;;
30458;SDS011;17254;50.976;7.034;2023-06-14T00:21:24;8.94;;;8.04;;
30458;SDS011;17254;50.976;7.034;2023-06-14T00:21:30;9.10;;;8.20;;
30458;SDS011;17254;50.976;7.034;2023-06-14T00:21:36;9.00;;;8.10;;
30458;SDS011;17254;50.976;7.034;2023-06-14T00:21:43;9.00;;;8.10;;
30458;SDS011;17254;50.976;7.034;2023-06-14T00:21:49;9.07;;;8.10;;
30458;SDS011;17254;50.976;7.034;2023-06-14T00:21:55;9.48;;;8.27;;
30458;SDS011;17254;50.976;7.034;2023-06-14T00:22:02;9.33;;;8.07;;
30458;SDS011;17254;50.976;7.034;2023-06-14T00:22:08;9.07;;;8.07;;
30458;SDS011;17254;50.976;7.034;2023-06-14T00:22:14;8.88;;;7.93;;
30458;SDS011;17254;50.976;7.034;2023-06-14T00:22:20;8.88;;;7.97;;
30458;SDS011;17254;50.976;7.034;2023-06-14T00:22:26;8.77;;;7.90;;
30458;SDS011;17254;50.976;7.034;2023-06-14T00:22:33;8.90;;;8.00;;
30458;SDS011;17254;50.976;7.034;2023-06-14T00:22:41;9.30;;;8.33;;
30458;SDS011;17254;50.976;7.034;2023-06-14T00:22:47;9.63;;;8.57;;
30458;SDS011;17254;50.976;7.034;2023-06-14T00:22:53;9.73;;;8.70;;
30458;SDS011;17254;50.976;7.034;2023-06-14T00:23:01;9.33;;;8.33;;
30458;SDS011;17254;50.976;7.034;2023-06-14T00:23:07;9.47;;;8.47;;
30458;SDS011;17254;50.976;7.034;2023-06-14T00:23:13;9.52;;;8.52;;
30458;SDS011;17254;50.976;7.034;2023-06-14T00:23:18;9.25;;;8.25;;
30458;SDS011;17254;50.976;7.034;2023-06-14T00:23:24;9.70;;;8.05;;
30458;SDS011;17254;50.976;7.034;2023-06-14T00:23:30;9.95;;;8.30;;
30458;SDS011;17254;50.976;7.034;2023-06-14T00:23:36;10.35;;;8.23;;
30458;SDS011;17254;50.976;7.034;2023-06-14T00:23:42;10.13;;;8.00;;
30458;SDS011;17254;50.976;7.034;2023-06-14T00:23:48;10.23;;;7.90;;
30458;SDS011;17254;50.976;7.034;2023-06-14T00:23:54;9.45;;;7.93;;
30458;SDS011;17254;50.976;7.034;2023-06-14T00:24:00;9.40;;;7.93;;
30458;SDS011;17254;50.976;7.034;2023-06-14T00:24:07;9.48;;;7.70;;
30458;SDS011;17254;50.976;7.034;2023-06-14T00:24:13;9.08;;;7.86;;
30458;SDS011;17254;50.976;7.034;2023-06-14T00:24:19;9.27;;;8.13;;
30458;SDS011;17254;50.976;7.034;2023-06-14T00:24:25;9.75;;;8.27;;
30458;SDS011;17254;50.976;7.034;2023-06-14T00:24:31;9.82;;;8.30;;
30458;SDS011;17254;50.976;7.034;2023-06-14T00:24:37;9.68;;;8.52;;
30458;SDS011;17254;50.976;7.034;2023-06-14T00:24:43;9.85;;;8.55;;
30458;SDS011;17254;50.976;7.034;2023-06-14T00:24:49;9.73;;;8.43;;
30458;SDS011;17254;50.976;7.034;2023-06-14T00:24:55;9.68;;;8.35;;
30458;SDS011;17254;50.976;7.034;2023-06-14T00:25:01;10.00;;;8.40;;
30458;SDS011;17254;50.976;7.034;2023-06-14T00:25:08;9.85;;;8.30;;
30458;SDS011;17254;50.976;7.034;2023-06-14T00:25:13;9.75;;;8.23;;
30458;SDS011;17254;50.976;7.034;2023-06-14T00:25:20;10.33;;;8.47;;
30458;SDS011;17254;50.976;7.034;2023-06-14T00:25:27;9.42;;;8.28;;
30458;SDS011;17254;50.976;7.034;2023-06-14T00:25:33;9.35;;;8.25;;
30458;SDS011;17254;50.976;7.034;2023-06-14T00:25:40;9.30;;;8.30;;
30458;SDS011;17254;50.976;7.034;2023-06-14T00:25:45;9.38;;;8.43;;
30458;SDS011;17254;50.976;7.034;2023-06-14T00:25:52;9.23;;;8.33;;
30458;SDS011;17254;50.976;7.034;2023-06-14T00:25:58;9.23;;;8.32;;
30458;SDS011;17254;50.976;7.034;2023-06-14T00:26:04;9.10;;;8.20;;
30458;SDS011;17254;50.976;7.034;2023-06-14T00:26:09;9.20;;;8.30;;
30458;SDS011;17254;50.976;7.034;2023-06-14T00:26:17;9.14;;;8.04;;
30458;SDS011;17254;50.976;7.034;2023-06-14T00:26:23;9.65;;;8.30;;
30458;SDS011;17254;50.976;7.034;2023-06-14T00:26:31;10.55;;;8.63;;
30458;SDS011;17254;50.976;7.034;2023-06-14T00:26:37;11.00;;;9.07;;
30458;SDS011;17254;50.976;7.034;2023-06-14T00:26:43;12.02;;;9.93;;
30458;SDS011;17254;50.976;7.034;2023-06-14T00:26:49;12.70;;;10.52;;
30458;SDS011;17254;50.976;7.034;2023-06-14T00:26:56;13.02;;;10.60;;
30458;SDS011;17254;50.976;7.034;2023-06-14T00:27:02;12.37;;;10.67;;
30458;SDS011;17254;50.976;7.034;2023-06-14T00:27:08;12.16;;;10.22;;
30458;SDS011;17254;50.976;7.034;2023-06-14T00:27:15;10.63;;;9.27;;
30458;SDS011;17254;50.976;7.034;2023-06-14T00:27:20;11.57;;;9.70;;
30458;SDS011;17254;50.976;7.034;2023-06-14T00:27:26;12.18;;;9.95;;
30458;SDS011;17254;50.976;7.034;2023-06-14T00:27:32;12.23;;;9.90;;
30458;SDS011;17254;50.976;7.034;2023-06-14T00:27:38;12.07;;;9.95;;
30458;SDS011;17254;50.976;7.034;2023-06-14T00:27:44;12.30;;;9.93;;
30458;SDS011;17254;50.976;7.034;2023-06-14T00:27:50;10.88;;;9.15;;
30458;SDS011;17254;50.976;7.034;2023-06-14T00:27:57;9.93;;;8.63;;
30458;SDS011;17254;50.976;7.034;2023-06-14T00:28:04;10.44;;;9.10;;
30458;SDS011;17254;50.976;7.034;2023-06-14T00:28:10;10.90;;;9.55;;
30458;SDS011;17254;50.976;7.034;2023-06-14T00:28:15;11.50;;;9.95;;
30458;SDS011;17254;50.976;7.034;2023-06-14T00:28:22;12.07;;;10.27;;
30458;SDS011;17254;50.976;7.034;2023-06-14T00:28:28;12.18;;;10.60;;
30458;SDS011;17254;50.976;7.034;2023-06-14T00:28:34;11.88;;;10.60;;
30458;SDS011;17254;50.976;7.034;2023-06-14T00:28:40;11.82;;;10.48;;
30458;SDS011;17254;50.976;7.034;2023-06-14T00:28:46;11.68;;;10.45;;
30458;SDS011;17254;50.976;7.034;2023-06-14T00:28:52;11.82;;;10.63;;
30458;SDS011;17254;50.976;7.034;2023-06-14T00:28:58;11.50;;;10.30;;
30458;SDS011;17254;50.976;7.034;2023-06-14T00:29:05;11.40;;;10.23;;
30458;SDS011;17254;50.976;7.034;2023-06-14T00:29:11;11.13;;;10.02;;
30458;SDS011;17254;50.976;7.034;2023-06-14T00:29:17;10.90;;;9.80;;
30458;SDS011;17254;50.976;7.034;2023-06-14T00:29:23;10.65;;;9.55;;
30458;SDS011;17254;50.976;7.034;2023-06-14T00:29:29;10.65;;;9.55;;
30458;SDS011;17254;50.976;7.034;2023-06-14T00:29:35;10.80;;;9.70;;
30458;SDS011;17254;50.976;7.034;2023-06-14T00:29:43;11.48;;;9.70;;
30458;SDS011;17254;50.976;7.034;2023-06-14T00:29:48;12.35;;;9.77;;
30458;SDS011;17254;50.976;7.034;2023-06-14T00:29:55;12.42;;;9.76;;
30458;SDS011;17254;50.976;7.034;2023-06-14T00:30:05;12.84;;;9.44;;
30458;SDS011;17254;50.976;7.034;2023-06-14T00:30:12;12.22;;;9.22;;
30458;SDS011;17254;50.976;7.034;2023-06-14T00:30:19;11.60;;;8.97;;
30458;SDS011;17254;50.976;7.034;2023-06-14T00:30:25;12.68;;;8.90;;
30458;SDS011;17254;50.976;7.034;2023-06-14T00:30:35;12.71;;;8.68;;
30458;SDS011;17254;50.976;7.034;2023-06-14T00:30:41;12.35;;;8.55;;
30458;SDS011;17254;50.976;7.034;2023-06-14T00:30:49;12.18;;;8.65;;
30458;SDS011;17254;50.976;7.034;2023-06-14T00:30:55;10.67;;;8.57;;
30458;SDS011;17254;50.976;7.034;2023-06-14T00:31:01;10.18;;;8.57;;
30458;SDS011;17254;50.976;7.034;2023-06-14T00:31:07;10.12;;;8.50;;
30458;SDS011;17254;50.976;7.034;2023-06-14T00:31:13;9.95;;;8.52;;
30458;SDS011;17254;50.976;7.034;2023-06-14T00:31:20;9.46;;;8.32;;
30458;SDS011;17254;50.976;7.034;2023-06-14T00:31:26;10.00;;;8.37;;
30458;SDS011;17254;50.976;7.034;2023-06-14T00:31:33;9.96;;;8.30;;
30458;SDS011;17254;50.976;7.034;2023-06-14T00:31:39;10.10;;;8.32;;
30458;SDS011;17254;50.976;7.034;2023-06-14T00:31:45;10.13;;;8.20;;
30458;SDS011;17254;50.976;7.034;2023-06-14T00:31:51;10.15;;;8.50;;
30458;SDS011;17254;50.976;7.034;2023-06-14T00:31:57;9.92;;;8.60;;
30458;SDS011;17254;50.976;7.034;2023-06-14T00:32:06;9.84;;;8.66;;
30458;SDS011;17254;50.976;7.034;2023-06-14T00:32:12;9.62;;;8.60;;
30458;SDS011;17254;50.976;7.034;2023-06-14T00:32:18;9.63;;;8.63;;
30458;SDS011;17254;50.976;7.034;2023-06-14T00:32:24;9.45;;;8.25;;
30458;SDS011;17254;50.976;7.034;2023-06-14T00:32:30;9.37;;;8.23;;
30458;SDS011;17254;50.976;7.034;2023-06-14T00:32:36;9.35;;;8.32;;
30458;SDS011;17254;50.976;7.034;2023-06-14T00:32:42;9.40;;;8.40;;
30458;SDS011;17254;50.976;7.034;2023-06-14T00:32:48;9.33;;;8.17;;
30458;SDS011;17254;50.976;7.034;2023-06-14T00:32:56;9.70;;;8.27;;
30458;SDS011;17254;50.976;7.034;2023-06-14T00:33:04;10.07;;;8.30;;
30458;SDS011;17254;50.976;7.034;2023-06-14T00:33:10;9.90;;;8.10;;
30458;SDS011;17254;50.976;7.034;2023-06-14T00:33:16;10.07;;;8.10;;
30458;SDS011;17254;50.976;7.034;2023-06-14T00:33:22;9.90;;;8.16;;
30458;SDS011;17254;50.976;7.034;2023-06-14T00:33:29;9.28;;;7.86;;
30458;SDS011;17254;50.976;7.034;2023-06-14T00:33:35;8.80;;;7.90;;
30458;SDS011;17254;50.976;7.034;2023-06-14T00:33:41;8.93;;;8.00;;
30458;SDS011;17254;50.976;7.034;2023-06-14T00:33:47;8.98;;;8.07;;
30458;SDS011;17254;50.976;7.034;2023-06-14T00:33:53;9.02;;;8.13;;
30458;SDS011;17254;50.976;7.034;2023-06-14T00:33:59;9.27;;;8.30;;
30458;SDS011;17254;50.976;7.034;2023-06-14T00:34:05;9.30;;;8.30;;
30458;SDS011;17254;50.976;7.034;2023-06-14T00:34:13;9.34;;;8.30;;
30458;SDS011;17254;50.976;7.034;2023-06-14T00:34:20;9.07;;;8.10;;
30458;SDS011;17254;50.976;7.034;2023-06-14T00:34:26;9.55;;;8.02;;
30458;SDS011;17254;50.976;7.034;2023-06-14T00:34:32;10.05;;;8.07;;
30458;SDS011;17254;50.976;7.034;2023-06-14T00:34:37;10.13;;;8.23;;
30458;SDS011;17254;50.976;7.034;2023-06-14T00:34:43;10.68;;;8.38;;
30458;SDS011;17254;50.976;7.034;2023-06-14T00:34:49;11.10;;;8.48;;
30458;SDS011;17254;50.976;7.034;2023-06-14T00:34:55;10.63;;;8.60;;
30458;SDS011;17254;50.976;7.034;2023-06-14T00:35:01;10.63;;;8.52;;
30458;SDS011;17254;50.976;7.034;2023-06-14T00:35:08;10.20;;;8.23;;
30458;SDS011;17254;50.976;7.034;2023-06-14T00:35:15;9.83;;;8.10;;
30458;SDS011;17254;50.976;7.034;2023-06-14T00:35:21;10.10;;;7.95;;
30458;SDS011;17254;50.976;7.034;2023-06-14T00:35:27;10.10;;;8.10;;
30458;SDS011;17254;50.976;7.034;2023-06-14T00:35:36;12.43;;;9.67;;
30458;SDS011;17254;50.976;7.034;2023-06-14T00:35:43;15.54;;;11.74;;
30458;SDS011;17254;50.976;7.034;2023-06-14T00:35:49;18.90;;;14.17;;
30458;SDS011;17254;50.976;7.034;2023-06-14T00:35:55;21.60;;;15.43;;
30458;SDS011;17254;50.976;7.034;2023-06-14T00:36:01;20.67;;;15.32;;
30458;SDS011;17254;50.976;7.034;2023-06-14T00:36:07;20.00;;;14.75;;
30458;SDS011;17254;50.976;7.034;2023-06-14T00:36:13;17.45;;;13.15;;
30458;SDS011;17254;50.976;7.034;2023-06-14T00:36:19;16.40;;;11.90;;
30458;SDS011;17254;50.976;7.034;2023-06-14T00:36:25;15.90;;;11.80;;
30458;SDS011;17254;50.976;7.034;2023-06-14T00:36:31;18.80;;;13.27;;
30458;SDS011;17254;50.976;7.034;2023-06-14T00:36:37;31.70;;;19.48;;
30458;SDS011;17254;50.976;7.034;2023-06-14T00:36:43;40.60;;;24.20;;
30458;SDS011;17254;50.976;7.034;2023-06-14T00:36:49;51.40;;;29.73;;
30458;SDS011;17254;50.976;7.034;2023-06-14T00:36:54;72.50;;;41.30;;
30458;SDS011;17254;50.976;7.034;2023-06-14T00:37:01;87.67;;;49.47;;
30458;SDS011;17254;50.976;7.034;2023-06-14T00:37:07;84.45;;;47.90;;
30458;SDS011;17254;50.976;7.034;2023-06-14T00:37:14;82.28;;;47.05;;
30458;SDS011;17254;50.976;7.034;2023-06-14T00:37:21;65.33;;;38.07;;
30458;SDS011;17254;50.976;7.034;2023-06-14T00:37:27;54.80;;;31.40;;
30458;SDS011;17254;50.976;7.034;2023-06-14T00:37:33;50.07;;;28.70;;
30458;SDS011;17254;50.976;7.034;2023-06-14T00:37:41;48.43;;;27.90;;
30458;SDS011;17254;50.976;7.034;2023-06-14T00:37:47;48.60;;;27.98;;
30458;SDS011;17254;50.976;7.034;2023-06-14T00:37:53;47.17;;;27.65;;
30458;SDS011;17254;50.976;7.034;2023-06-14T00:38:00;44.98;;;26.98;;
30458;SDS011;17254;50.976;7.034;2023-06-14T00:38:07;44.58;;;26.58;;
30458;SDS011;17254;50.976;7.034;2023-06-14T00:38:13;46.88;;;27.38;;
30458;SDS011;17254;50.976;7.034;2023-06-14T00:38:19;48.53;;;27.77;;
30458;SDS011;17254;50.976;7.034;2023-06-14T00:38:25;49.03;;;28.30;;
30458;SDS011;17254;50.976;7.034;2023-06-14T00:38:31;47.83;;;27.95;;
30458;SDS011;17254;50.976;7.034;2023-06-14T00:38:37;50.28;;;29.42;;
30458;SDS011;17254;50.976;7.034;2023-06-14T00:38:43;58.95;;;32.95;;